createdAt,value
2018-05-11T00:01:36.562Z,26.98
2018-05-11T00:04:14.205Z,22.55
2018-05-11T00:06:51.417Z,22.23
2018-05-11T00:09:28.360Z,24.20
2018-05-11T00:12:05.334Z,24.02
2018-05-11T00:14:43.146Z,20.95
2018-05-11T00:17:19.513Z,21.80
2018-05-11T00:19:56.580Z,22.10
2018-05-11T00:22:34.179Z,22.37
2018-05-11T00:25:10.932Z,19.33
2018-05-11T00:27:48.275Z,21.12
2018-05-11T00:30:25.450Z,20.65
2018-05-11T00:33:03.406Z,21.92
2018-05-11T00:35:41.525Z,21.35
2018-05-11T00:38:18.210Z,21.73
2018-05-11T00:40:55.813Z,22.65
2018-05-11T00:43:32.777Z,21.15
2018-05-11T00:46:09.265Z,20.55
2018-05-11T00:48:46.470Z,20.73
2018-05-11T00:51:22.953Z,21.10
2018-05-11T00:54:01.042Z,20.98
2018-05-11T00:56:38.470Z,19.90
2018-05-11T00:59:15.649Z,20.88
2018-05-11T01:01:52.249Z,18.77
2018-05-11T01:04:28.912Z,19.87
2018-05-11T01:07:05.066Z,19.60
2018-05-11T01:09:42.408Z,18.50
2018-05-11T01:12:19.266Z,18.65
2018-05-11T01:14:57.491Z,21.15
2018-05-11T01:17:35.625Z,19.55
2018-05-11T01:20:13.237Z,20.27
2018-05-11T01:22:50.246Z,17.90
2018-05-11T01:25:27.284Z,17.87
2018-05-11T01:28:04.268Z,19.98
2018-05-11T01:30:40.533Z,20.27
2018-05-11T01:33:18.156Z,20.10
2018-05-11T01:35:55.857Z,20.77
2018-05-11T01:38:32.426Z,19.17
2018-05-11T01:41:08.592Z,17.48
2018-05-11T01:43:45.162Z,17.67
2018-05-11T01:46:22.799Z,17.08
2018-05-11T01:48:59.358Z,18.23
2018-05-11T01:51:35.560Z,15.57
2018-05-11T01:54:12.242Z,18.35
2018-05-11T01:56:48.474Z,18.95
2018-05-11T01:59:25.497Z,17.75
2018-05-11T02:02:03.089Z,19.85
2018-05-11T02:04:40.106Z,18.60
2018-05-11T02:07:17.053Z,18.02
2018-05-11T02:09:54.424Z,20.65
2018-05-11T02:12:31.494Z,19.27
2018-05-11T02:15:09.425Z,17.42
2018-05-11T02:17:48.864Z,18.60
2018-05-11T02:20:25.278Z,18.52
2018-05-11T02:23:01.823Z,18.17
2018-05-11T02:25:39.499Z,19.02
2018-05-11T02:28:16.877Z,19.00
2018-05-11T02:30:53.517Z,17.02
2018-05-11T02:33:32.689Z,19.35
2018-05-11T02:36:09.671Z,20.50
2018-05-11T02:38:47.621Z,17.85
2018-05-11T02:41:24.317Z,18.12
2018-05-11T02:44:00.932Z,19.83
2018-05-11T02:46:37.913Z,17.27
2018-05-11T02:49:15.798Z,18.52
2018-05-11T02:51:52.437Z,19.48
2018-05-11T02:54:28.802Z,18.25
2018-05-11T02:57:06.136Z,18.30
2018-05-11T02:59:42.493Z,17.95
2018-05-11T03:02:19.471Z,18.45
2018-05-11T03:04:57.067Z,18.55
2018-05-11T03:07:33.549Z,18.58
2018-05-11T03:10:11.033Z,16.80
2018-05-11T03:12:49.240Z,16.25
2018-05-11T03:15:25.593Z,16.48
2018-05-11T03:18:02.388Z,16.08
2018-05-11T03:20:39.845Z,16.83
2018-05-11T03:23:17.888Z,16.42
2018-05-11T03:25:54.162Z,15.95
2018-05-11T03:28:30.798Z,16.75
2018-05-11T03:31:07.757Z,16.50
2018-05-11T03:33:46.290Z,14.13
2018-05-11T03:36:22.754Z,15.70
2018-05-11T03:38:59.950Z,15.10
2018-05-11T03:41:38.776Z,13.20
2018-05-11T03:44:16.396Z,15.20
2018-05-11T03:46:53.348Z,15.02
2018-05-11T03:49:30.635Z,19.15
2018-05-11T03:52:07.596Z,18.83
2018-05-11T03:54:44.916Z,15.23
2018-05-11T03:57:22.233Z,18.87
2018-05-11T03:59:59.127Z,19.15
2018-05-11T04:02:52.999Z,14.98
2018-05-11T04:05:48.175Z,19.27
2018-05-11T04:08:46.582Z,18.40
2018-05-11T04:11:24.221Z,17.50
2018-05-11T04:14:02.213Z,18.33
2018-05-11T04:16:39.707Z,21.58
2018-05-11T04:19:16.995Z,19.00
2018-05-11T04:21:54.334Z,17.98
2018-05-11T04:24:30.945Z,18.17
2018-05-11T04:27:09.192Z,17.35
2018-05-11T04:29:45.821Z,15.90
2018-05-11T04:32:22.531Z,19.58
2018-05-11T04:34:58.844Z,17.85
2018-05-11T04:37:35.434Z,20.10
2018-05-11T04:40:13.751Z,17.27
2018-05-11T04:42:51.813Z,19.73
2018-05-11T04:45:28.524Z,18.10
2018-05-11T04:48:04.711Z,20.83
2018-05-11T04:50:41.189Z,17.80
2018-05-11T04:53:19.901Z,20.73
2018-05-11T04:55:56.973Z,20.48
2018-05-11T04:58:35.073Z,19.40
2018-05-11T05:01:11.434Z,18.35
2018-05-11T05:03:48.261Z,21.95
2018-05-11T05:06:25.258Z,22.27
2018-05-11T05:09:03.274Z,19.25
2018-05-11T05:11:41.940Z,21.55
2018-05-11T05:14:20.335Z,20.75
2018-05-11T05:16:57.009Z,22.17
2018-05-11T05:19:33.680Z,23.70
2018-05-11T05:22:11.274Z,22.58
2018-05-11T05:24:50.725Z,23.08
2018-05-11T05:27:27.431Z,22.10
2018-05-11T05:30:04.694Z,25.70
2018-05-11T05:32:41.975Z,22.85
2018-05-11T05:35:20.497Z,23.55
2018-05-11T05:37:58.991Z,22.52
2018-05-11T05:40:35.973Z,22.65
2018-05-11T05:43:13.033Z,24.27
2018-05-11T05:45:50.430Z,21.58
2018-05-11T05:48:27.277Z,22.85
2018-05-11T05:51:04.614Z,22.10
2018-05-11T05:53:42.107Z,24.90
2018-05-11T05:56:19.146Z,19.98
2018-05-11T05:58:56.062Z,22.37
2018-05-11T06:01:35.529Z,22.42
2018-05-11T06:04:13.209Z,22.67
2018-05-11T06:06:51.559Z,19.60
2018-05-11T06:09:31.663Z,21.42
2018-05-11T06:12:08.304Z,20.77
2018-05-11T06:14:45.325Z,20.73
2018-05-11T06:17:22.888Z,21.45
2018-05-11T06:20:00.496Z,21.92
2018-05-11T06:22:39.216Z,21.52
2018-05-11T06:25:17.161Z,19.80
2018-05-11T06:27:54.275Z,18.08
2018-05-11T06:30:34.197Z,15.83
2018-05-11T06:33:11.835Z,18.20
2018-05-11T06:35:49.842Z,15.23
2018-05-11T06:38:27.117Z,16.65
2018-05-11T06:41:04.299Z,17.85
2018-05-11T06:43:41.615Z,16.93
2018-05-11T06:46:18.598Z,17.53
2018-05-11T06:48:56.262Z,16.23
2018-05-11T06:51:34.127Z,16.20
2018-05-11T06:54:11.129Z,18.27
2018-05-11T06:56:48.983Z,16.00
2018-05-11T06:59:25.944Z,15.40
2018-05-11T07:02:03.856Z,15.18
2018-05-11T07:04:40.838Z,17.73
2018-05-11T07:07:17.797Z,15.60
2018-05-11T07:09:54.899Z,15.37
2018-05-11T07:12:32.788Z,16.37
2018-05-11T07:15:11.858Z,15.90
2018-05-11T07:17:48.503Z,14.63
2018-05-11T07:20:27.107Z,14.33
2018-05-11T07:23:04.776Z,14.17
2018-05-11T07:25:41.728Z,15.80
2018-05-11T07:28:20.403Z,13.27
2018-05-11T07:30:57.226Z,14.67
2018-05-11T07:33:34.136Z,11.17
2018-05-11T07:36:10.058Z,13.43
2018-05-11T07:38:48.339Z,13.93
2018-05-11T07:41:25.885Z,15.43
2018-05-11T07:44:03.497Z,12.50
2018-05-11T07:46:42.261Z,12.13
2018-05-11T07:49:19.742Z,14.33
2018-05-11T07:51:56.918Z,13.13
2018-05-11T07:54:33.726Z,12.37
2018-05-11T07:57:12.800Z,11.93
2018-05-11T07:59:49.785Z,13.80
2018-05-11T08:02:27.403Z,15.57
2018-05-11T08:05:04.246Z,15.07
2018-05-11T08:07:41.770Z,10.70
2018-05-11T08:10:19.696Z,10.70
2018-05-11T08:12:58.096Z,13.43
2018-05-11T08:15:34.022Z,12.87
2018-05-11T08:18:10.766Z,10.77
2018-05-11T08:20:48.575Z,10.90
2018-05-11T08:23:26.721Z,16.63
2018-05-11T08:26:04.401Z,13.30
2018-05-11T08:28:41.417Z,11.23
2018-05-11T08:31:18.306Z,14.27
2018-05-11T08:33:56.788Z,11.27
2018-05-11T08:36:34.470Z,12.37
2018-05-11T08:39:11.252Z,10.67
2018-05-11T08:41:48.127Z,10.93
2018-05-11T08:44:25.425Z,13.43
2018-05-11T08:47:02.408Z,10.03
2018-05-11T08:49:39.476Z,9.57
2018-05-11T08:52:16.370Z,10.57
2018-05-11T08:54:54.263Z,13.37
2018-05-11T08:57:32.626Z,10.27
2018-05-11T09:00:11.055Z,9.57
2018-05-11T09:02:48.916Z,9.70
2018-05-11T09:05:25.356Z,12.33
2018-05-11T09:08:02.183Z,13.53
2018-05-11T09:10:39.239Z,13.33
2018-05-11T09:13:17.110Z,8.63
2018-05-11T09:15:53.664Z,7.97
2018-05-11T09:18:30.897Z,11.20
2018-05-11T09:21:08.635Z,8.80
2018-05-11T09:23:45.566Z,10.50
2018-05-11T09:26:23.419Z,9.63
2018-05-11T09:29:00.553Z,8.37
2018-05-11T09:31:37.380Z,12.17
2018-05-11T09:34:15.575Z,10.97
2018-05-11T09:36:53.081Z,12.07
2018-05-11T09:39:30.478Z,10.63
2018-05-11T09:42:08.394Z,13.03
2018-05-11T09:44:45.817Z,11.27
2018-05-11T09:47:22.802Z,11.40
2018-05-11T09:49:59.626Z,11.80
2018-05-11T09:52:37.313Z,10.07
2018-05-11T09:55:17.699Z,11.73
2018-05-11T09:57:55.638Z,10.13
2018-05-11T10:00:32.876Z,9.53
2018-05-11T10:03:11.452Z,12.27
2018-05-11T10:05:48.326Z,16.03
2018-05-11T10:08:26.103Z,11.63
2018-05-11T10:11:02.783Z,11.97
2018-05-11T10:13:40.858Z,10.23
2018-05-11T10:16:18.780Z,14.83
2018-05-11T10:18:55.727Z,12.03
2018-05-11T10:21:34.689Z,13.67
2018-05-11T10:24:11.844Z,14.83
2018-05-11T10:26:50.093Z,17.23
2018-05-11T10:29:28.574Z,17.53
2018-05-11T10:32:06.776Z,15.83
2018-05-11T10:34:44.465Z,16.50
2018-05-11T10:37:22.585Z,15.43
2018-05-11T10:40:00.425Z,15.93
2018-05-11T10:42:38.170Z,16.77
2018-05-11T10:45:15.301Z,15.00
2018-05-11T10:47:51.990Z,15.10
2018-05-11T10:50:29.673Z,16.20
2018-05-11T10:53:08.676Z,15.43
2018-05-11T10:55:46.353Z,18.93
2018-05-11T10:58:24.584Z,17.33
2018-05-11T11:01:02.316Z,17.93
2018-05-11T11:03:39.465Z,29.57
2018-05-11T11:06:16.831Z,22.77
2018-05-11T11:08:55.343Z,20.83
2018-05-11T11:11:31.347Z,16.63
2018-05-11T11:14:07.949Z,18.53
2018-05-11T11:16:46.492Z,17.03
2018-05-11T11:19:23.255Z,19.50
2018-05-11T11:22:01.918Z,22.87
2018-05-11T11:24:38.909Z,16.43
2018-05-11T11:27:15.808Z,16.47
2018-05-11T11:29:54.759Z,17.17
2018-05-11T11:32:32.980Z,14.53
2018-05-11T11:35:09.967Z,16.10
2018-05-11T11:37:46.614Z,13.70
2018-05-11T11:40:23.628Z,15.67
2018-05-11T11:43:01.566Z,14.87
2018-05-11T11:45:40.352Z,13.50
2018-05-11T11:48:18.284Z,13.70
2018-05-11T11:50:56.649Z,15.00
2018-05-11T11:53:33.361Z,13.97
2018-05-11T11:56:09.258Z,14.53
2018-05-11T11:58:47.506Z,11.87
2018-05-11T12:01:24.396Z,12.87
2018-05-11T12:04:01.377Z,12.93
2018-05-11T12:06:38.663Z,15.03
2018-05-11T12:09:16.095Z,13.17
2018-05-11T12:11:53.516Z,16.10
2018-05-11T12:14:31.037Z,13.13
2018-05-11T12:17:07.785Z,12.63
2018-05-11T12:19:44.758Z,14.30
2018-05-11T12:22:22.669Z,13.97
2018-05-11T12:24:59.846Z,14.70
2018-05-11T12:27:37.206Z,13.73
2018-05-11T12:30:14.845Z,13.37
2018-05-11T12:32:51.610Z,13.50
2018-05-11T12:35:29.409Z,14.93
2018-05-11T12:38:07.651Z,18.87
2018-05-11T12:40:44.906Z,15.83
2018-05-11T12:43:22.259Z,14.60
2018-05-11T12:45:59.702Z,14.53
2018-05-11T12:48:38.113Z,15.00
2018-05-11T12:51:15.640Z,13.23
2018-05-11T12:53:52.897Z,14.50
2018-05-11T12:56:31.162Z,14.37
2018-05-11T12:59:08.993Z,14.73
2018-05-11T13:01:46.721Z,12.30
2018-05-11T13:04:24.180Z,11.23
2018-05-11T13:07:01.173Z,11.23
2018-05-11T13:09:37.937Z,11.60
2018-05-11T13:12:16.313Z,12.73
2018-05-11T13:14:53.145Z,10.73
2018-05-11T13:17:29.749Z,13.90
2018-05-11T13:20:06.770Z,12.20
2018-05-11T13:22:44.951Z,13.67
2018-05-11T13:25:21.856Z,12.33
2018-05-11T13:27:59.126Z,11.17
2018-05-11T13:30:36.611Z,10.73
2018-05-11T13:33:14.647Z,10.30
2018-05-11T13:35:50.990Z,11.47
2018-05-11T13:38:28.658Z,11.73
2018-05-11T13:41:06.180Z,13.03
2018-05-11T13:43:43.787Z,12.60
2018-05-11T13:46:20.327Z,12.87
2018-05-11T13:49:01.498Z,14.03
2018-05-11T13:51:39.968Z,12.90
2018-05-11T13:54:17.971Z,15.40
2018-05-11T13:56:54.325Z,15.13
2018-05-11T13:59:32.200Z,14.20
2018-05-11T14:02:09.710Z,20.70
2018-05-11T14:04:47.642Z,16.23
2018-05-11T14:07:24.920Z,14.43
2018-05-11T14:10:02.534Z,15.40
2018-05-11T14:12:39.798Z,17.33
2018-05-11T14:15:16.778Z,14.17
2018-05-11T14:17:54.615Z,11.90
2018-05-11T14:20:32.871Z,12.83
2018-05-11T14:23:09.649Z,14.37
2018-05-11T14:25:47.788Z,12.47
2018-05-11T14:28:23.969Z,14.27
2018-05-11T14:31:01.708Z,17.53
2018-05-11T14:33:39.954Z,14.80
2018-05-11T14:36:16.874Z,13.03
2018-05-11T14:38:53.466Z,16.57
2018-05-11T14:41:31.780Z,16.00
2018-05-11T14:44:08.632Z,14.23
2018-05-11T14:46:46.657Z,14.73
2018-05-11T14:49:23.341Z,15.73
2018-05-11T14:52:00.878Z,15.63
2018-05-11T14:54:38.838Z,14.43
2018-05-11T14:57:15.326Z,15.37
2018-05-11T14:59:52.473Z,17.47
2018-05-11T15:02:30.366Z,16.50
2018-05-11T15:05:08.495Z,19.80
2018-05-11T15:07:45.280Z,17.63
2018-05-11T15:10:22.687Z,16.50
2018-05-11T15:13:00.228Z,18.53
2018-05-11T15:15:36.881Z,15.67
2018-05-11T15:18:12.908Z,17.87
2018-05-11T15:20:51.076Z,20.97
2018-05-11T15:23:29.621Z,18.40
2018-05-11T15:26:05.965Z,16.03
2018-05-11T15:28:44.096Z,16.20
2018-05-11T15:31:20.780Z,15.97
2018-05-11T15:33:57.231Z,16.77
2018-05-11T15:36:34.817Z,16.70
2018-05-11T15:39:11.501Z,17.43
2018-05-11T15:41:49.706Z,16.27
2018-05-11T15:44:27.280Z,18.80
2018-05-11T15:47:03.788Z,16.50
2018-05-11T15:49:42.868Z,18.03
2018-05-11T15:52:19.576Z,17.17
2018-05-11T15:54:56.798Z,18.73
2018-05-11T15:57:35.273Z,19.33
2018-05-11T16:00:12.497Z,17.10
2018-05-11T16:02:49.209Z,16.10
2018-05-11T16:05:25.664Z,18.03
2018-05-11T16:08:02.102Z,16.40
2018-05-11T16:10:39.224Z,20.77
2018-05-11T16:13:15.998Z,16.73
2018-05-11T16:15:52.268Z,19.00
2018-05-11T16:18:28.504Z,16.87
2018-05-11T16:21:04.657Z,17.30
2018-05-11T16:23:40.961Z,18.87
2018-05-11T16:26:17.312Z,16.47
2018-05-11T16:28:54.705Z,15.83
2018-05-11T16:31:32.779Z,17.43
2018-05-11T16:34:09.472Z,20.03
2018-05-11T16:36:46.221Z,18.47
2018-05-11T16:39:22.285Z,31.67
2018-05-11T16:41:58.966Z,19.17
2018-05-11T16:44:36.491Z,17.60
2018-05-11T16:47:13.393Z,18.17
2018-05-11T16:49:50.542Z,24.13
2018-05-11T16:52:28.117Z,21.13
2018-05-11T16:55:05.182Z,18.97
2018-05-11T16:57:42.222Z,18.13
2018-05-11T17:00:18.936Z,17.40
2018-05-11T17:02:56.656Z,19.13
2018-05-11T17:05:34.677Z,20.50
2018-05-11T17:08:11.661Z,20.10
2018-05-11T17:10:49.173Z,22.20
2018-05-11T17:13:26.652Z,17.63
2018-05-11T17:16:02.937Z,17.27
2018-05-11T17:18:40.407Z,20.20
2018-05-11T17:21:17.201Z,17.00
2018-05-11T17:23:54.152Z,18.47
2018-05-11T17:26:31.031Z,20.73
2018-05-11T17:29:07.697Z,17.27
2018-05-11T17:31:43.913Z,23.27
2018-05-11T17:34:22.376Z,18.03
2018-05-11T17:36:58.988Z,23.73
2018-05-11T17:39:35.614Z,18.03
2018-05-11T17:42:12.311Z,20.47
2018-05-11T17:44:49.377Z,19.20
2018-05-11T17:47:27.088Z,19.77
2018-05-11T17:50:03.203Z,21.83
2018-05-11T17:52:39.467Z,20.13
2018-05-11T17:55:17.236Z,20.17
2018-05-11T17:57:54.539Z,20.27
2018-05-11T18:00:30.517Z,21.43
2018-05-11T18:03:06.421Z,19.23
2018-05-11T18:05:43.487Z,23.80
2018-05-11T18:08:21.309Z,21.33
2018-05-11T18:10:58.453Z,18.13
2018-05-11T18:13:36.029Z,21.33
2018-05-11T18:16:13.302Z,21.77
2018-05-11T18:18:50.311Z,22.43
2018-05-11T18:21:27.484Z,19.43
2018-05-11T18:24:04.953Z,23.07
2018-05-11T18:26:43.918Z,18.97
2018-05-11T18:29:21.381Z,18.97
2018-05-11T18:31:57.964Z,21.52
2018-05-11T18:34:37.284Z,19.13
2018-05-11T18:37:14.607Z,18.83
2018-05-11T18:39:51.508Z,18.40
2018-05-11T18:42:28.246Z,20.53
2018-05-11T18:45:05.152Z,18.23
2018-05-11T18:47:42.047Z,19.60
2018-05-11T18:50:18.405Z,18.43
2018-05-11T18:52:55.067Z,20.43
2018-05-11T18:55:35.305Z,19.13
2018-05-11T18:58:12.394Z,18.07
2018-05-11T19:00:49.538Z,20.17
2018-05-11T19:03:27.405Z,18.97
2018-05-11T19:06:04.832Z,18.63
2018-05-11T19:08:41.635Z,17.70
2018-05-11T19:11:18.809Z,15.77
2018-05-11T19:13:56.085Z,15.43
2018-05-11T19:16:32.498Z,15.17
2018-05-11T19:19:10.722Z,17.00
2018-05-11T19:21:47.339Z,14.30
2018-05-11T19:24:24.283Z,21.13
2018-05-11T19:27:02.299Z,17.23
2018-05-11T19:29:39.635Z,16.80
2018-05-11T19:32:16.241Z,16.30
2018-05-11T19:34:53.076Z,16.00
2018-05-11T19:37:30.948Z,17.20
2018-05-11T19:40:08.296Z,18.93
2018-05-11T19:42:45.649Z,25.90
2018-05-11T19:45:23.273Z,18.87
2018-05-11T19:48:01.312Z,18.77
2018-05-11T19:50:37.961Z,18.00
2018-05-11T19:53:15.812Z,20.47
2018-05-11T19:55:52.830Z,18.40
2018-05-11T19:58:28.948Z,20.77
2018-05-11T20:01:05.826Z,18.00
2018-05-11T20:03:43.356Z,19.70
2018-05-11T20:06:19.689Z,19.23
2018-05-11T20:08:57.106Z,20.10
2018-05-11T20:11:33.812Z,19.63
2018-05-11T20:14:11.937Z,23.48
2018-05-11T20:16:48.835Z,22.27
2018-05-11T20:19:26.396Z,20.73
2018-05-11T20:22:04.823Z,19.07
2018-05-11T20:24:42.173Z,20.23
2018-05-11T20:27:20.834Z,26.07
2018-05-11T20:29:58.834Z,24.00
2018-05-11T20:32:35.643Z,22.25
2018-05-11T20:35:15.361Z,22.95
2018-05-11T20:37:53.917Z,24.30
2018-05-11T20:40:32.781Z,22.27
2018-05-11T20:43:10.330Z,21.58
2018-05-11T20:45:47.890Z,23.75
2018-05-11T20:48:27.202Z,25.93
2018-05-11T20:51:04.289Z,25.12
2018-05-11T20:53:41.078Z,27.45
2018-05-11T20:56:19.493Z,22.50
2018-05-11T20:58:56.611Z,23.42
2018-05-11T21:01:33.804Z,26.77
2018-05-11T21:04:11.732Z,26.25
2018-05-11T21:06:49.202Z,25.92
2018-05-11T21:09:27.372Z,21.65
2018-05-11T21:12:04.455Z,24.60
2018-05-11T21:14:41.101Z,26.33
2018-05-11T21:17:19.066Z,28.07
2018-05-11T21:19:55.341Z,29.70
2018-05-11T21:22:32.390Z,30.95
2018-05-11T21:25:09.739Z,25.85
2018-05-11T21:27:48.397Z,32.22
2018-05-11T21:30:24.868Z,26.47
2018-05-11T21:33:02.205Z,28.98
2018-05-11T21:35:38.173Z,25.53
2018-05-11T21:38:16.050Z,30.40
2018-05-11T21:40:52.813Z,26.62
2018-05-11T21:43:30.037Z,31.65
2018-05-11T21:46:07.289Z,30.67
2018-05-11T21:48:43.889Z,29.83
2018-05-11T21:51:22.401Z,29.80
2018-05-11T21:53:59.504Z,26.98
2018-05-11T21:56:37.148Z,28.85
2018-05-11T21:59:14.684Z,30.83
2018-05-11T22:01:51.049Z,33.10
2018-05-11T22:04:27.737Z,31.57
2018-05-11T22:07:04.589Z,28.38
2018-05-11T22:09:41.568Z,31.08
2018-05-11T22:12:20.126Z,29.60
2018-05-11T22:14:59.390Z,29.40
2018-05-11T22:17:37.657Z,30.77
2018-05-11T22:20:14.189Z,29.40
2018-05-11T22:22:52.047Z,29.00
2018-05-11T22:25:29.435Z,30.85
2018-05-11T22:28:06.982Z,26.33
2018-05-11T22:30:44.080Z,31.23
2018-05-11T22:33:20.617Z,25.55
2018-05-11T22:35:59.176Z,27.83
2018-05-11T22:38:35.832Z,29.10
2018-05-11T22:41:12.805Z,25.67
2018-05-11T22:43:50.065Z,26.15
2018-05-11T22:46:28.310Z,24.90
2018-05-11T22:49:05.057Z,27.08
2018-05-11T22:51:42.584Z,27.67
2018-05-11T22:54:19.253Z,28.00
2018-05-11T22:56:56.563Z,28.67
2018-05-11T22:59:33.820Z,29.10
2018-05-11T23:02:10.528Z,31.17
2018-05-11T23:04:47.795Z,30.87
2018-05-11T23:07:26.555Z,31.25
2018-05-11T23:10:03.914Z,31.13
2018-05-11T23:12:41.525Z,31.30
2018-05-11T23:15:19.090Z,25.98
2018-05-11T23:17:55.781Z,33.72
2018-05-11T23:20:34.368Z,31.80
2018-05-11T23:23:12.595Z,33.60
2018-05-11T23:25:50.670Z,31.45
2018-05-11T23:28:27.964Z,29.40
2018-05-11T23:31:06.411Z,34.45
2018-05-11T23:33:44.101Z,32.80
2018-05-11T23:36:20.729Z,35.92
2018-05-11T23:38:58.330Z,32.13
2018-05-11T23:41:35.976Z,34.60
2018-05-11T23:44:12.453Z,30.58
2018-05-11T23:46:49.181Z,31.83
2018-05-11T23:49:27.132Z,33.45
2018-05-11T23:52:04.311Z,37.20
2018-05-11T23:54:42.370Z,29.30
2018-05-11T23:57:18.729Z,34.33
2018-05-11T23:59:56.456Z,34.25
